Time;durP1;ratioP1;P1;durP2;ratioP2;P2;SDS_P1;SDS_P2;PMS_P1;PMS_P2;Temp;Humidity;BMP_temperature;BMP_pressure;BME280_temperature;BME280_humidity;BME280_pressure;Samples;Min_cycle;Max_cycle;Signal;HPM_P1;HPM_P2
2022/03/16 00:00:55;;;;;;;11.80;8.00;;;6.80;90.70;;;;;;2069307;28;20062;-88
2022/03/16 00:01:57;;;;;;;11.80;7.93;;;6.80;90.70;;;;;;2070439;28;20037;-88
2022/03/16 00:02:57;;;;;;;11.95;8.27;;;6.80;90.70;;;;;;2073326;28;20034;-88
2022/03/16 00:03:58;;;;;;;13.02;8.43;;;6.80;90.70;;;;;;2063612;28;20038;-88
2022/03/16 00:04:59;;;;;;;13.85;9.07;;;6.80;90.70;;;;;;2062461;28;20030;-88
2022/03/16 00:05:59;;;;;;;13.13;8.50;;;6.80;90.70;;;;;;2065290;28;20026;-88
2022/03/16 00:07:00;;;;;;;11.05;8.63;;;6.80;90.70;;;;;;2068356;28;20022;-88
2022/03/16 00:08:00;;;;;;;11.75;9.07;;;6.70;90.70;;;;;;2072080;28;20025;-87
2022/03/16 00:09:01;;;;;;;12.90;8.57;;;6.80;90.70;;;;;;2064431;28;20071;-87
2022/03/16 00:10:03;;;;;;;12.13;9.05;;;6.70;90.70;;;;;;2064833;28;20034;-88
2022/03/16 00:11:04;;;;;;;13.02;8.88;;;6.70;90.70;;;;;;2072355;28;20365;-88
2022/03/16 00:12:05;;;;;;;13.48;9.52;;;6.70;90.80;;;;;;2064084;28;20040;-88
2022/03/16 00:13:06;;;;;;;13.02;9.70;;;6.70;90.80;;;;;;2054185;28;20023;-88
2022/03/16 00:14:06;;;;;;;13.27;9.55;;;6.70;90.80;;;;;;2045443;28;20030;-87
2022/03/16 00:15:07;;;;;;;13.32;9.32;;;6.70;90.80;;;;;;2038564;29;20050;-88
2022/03/16 00:16:08;;;;;;;13.48;9.70;;;6.60;90.80;;;;;;2063397;28;20112;-87
2022/03/16 00:17:09;;;;;;;13.05;9.55;;;6.60;90.80;;;;;;2072305;28;20018;-88
2022/03/16 00:18:12;;;;;;;13.57;9.60;;;6.60;90.80;;;;;;2064694;28;20022;-88
2022/03/16 00:19:13;;;;;;;12.02;8.70;;;6.60;90.90;;;;;;2057318;28;20122;-88
2022/03/16 00:20:13;;;;;;;13.38;9.23;;;6.60;90.90;;;;;;2054046;28;20568;-88
2022/03/16 00:21:14;;;;;;;14.77;9.93;;;6.60;91.10;;;;;;2049093;28;20019;-88
2022/03/16 00:22:14;;;;;;;14.07;10.18;;;6.60;90.90;;;;;;2053887;28;20070;-88
2022/03/16 00:23:16;;;;;;;12.93;9.13;;;6.60;90.90;;;;;;2064868;28;20042;-88
2022/03/16 00:24:16;;;;;;;14.95;9.88;;;6.60;90.90;;;;;;2071344;28;20352;-88
2022/03/16 00:25:17;;;;;;;13.50;9.45;;;6.60;90.90;;;;;;2057005;28;20074;-88
2022/03/16 00:26:18;;;;;;;13.52;9.90;;;6.60;90.90;;;;;;2052112;28;20033;-88
2022/03/16 00:27:18;;;;;;;13.02;9.50;;;6.60;90.90;;;;;;2072276;28;20061;-88
2022/03/16 00:28:19;;;;;;;14.00;9.75;;;6.60;90.90;;;;;;2073246;28;20026;-88
2022/03/16 00:29:20;;;;;;;12.48;8.95;;;6.60;90.90;;;;;;2072762;28;20512;-88
2022/03/16 00:30:20;;;;;;;13.52;9.32;;;6.60;90.90;;;;;;2073183;28;20034;-88
2022/03/16 00:31:21;;;;;;;14.85;9.98;;;6.60;91.00;;;;;;2072921;28;20140;-88
2022/03/16 00:32:21;;;;;;;12.45;9.13;;;6.60;91.00;;;;;;2063873;28;20025;-88
2022/03/16 00:33:22;;;;;;;13.38;9.80;;;6.60;91.00;;;;;;2056085;28;20138;-88
2022/03/16 00:34:23;;;;;;;12.60;9.25;;;6.60;91.00;;;;;;2066064;28;20161;-87
2022/03/16 00:35:23;;;;;;;14.27;9.82;;;6.60;91.00;;;;;;2061655;28;20152;-87
2022/03/16 00:36:24;;;;;;;12.77;9.57;;;6.60;91.00;;;;;;2058853;28;20044;-88
2022/03/16 00:37:25;;;;;;;12.77;9.70;;;6.60;91.00;;;;;;2072181;28;20115;-88
2022/03/16 00:38:25;;;;;;;12.98;9.60;;;6.60;91.00;;;;;;2073110;28;20578;-88
2022/03/16 00:39:26;;;;;;;14.00;10.15;;;6.60;91.00;;;;;;2056638;28;20031;-88
2022/03/16 00:40:27;;;;;;;13.68;9.30;;;6.60;91.00;;;;;;2049167;28;20031;-88
2022/03/16 00:41:28;;;;;;;13.30;9.30;;;6.60;91.00;;;;;;2056860;28;20042;-88
2022/03/16 00:42:28;;;;;;;14.52;9.93;;;6.60;91.00;;;;;;2071612;28;20128;-88
2022/03/16 00:43:29;;;;;;;14.02;9.70;;;6.60;91.30;;;;;;2064665;28;20050;-87
2022/03/16 00:44:34;;;;;;;13.70;9.90;;;6.70;91.00;;;;;;2055608;28;20027;-88
2022/03/16 00:45:35;;;;;;;13.32;9.73;;;6.60;91.00;;;;;;2048081;28;20683;-88
2022/03/16 00:46:36;;;;;;;12.45;9.13;;;6.60;91.00;;;;;;2064907;28;20563;-88
2022/03/16 00:47:37;;;;;;;13.10;9.30;;;6.60;91.00;;;;;;2068482;28;20022;-88
2022/03/16 00:48:38;;;;;;;13.90;9.60;;;6.60;91.00;;;;;;2069732;28;20034;-88
2022/03/16 00:49:38;;;;;;;13.15;9.55;;;6.60;91.00;;;;;;2068188;28;20113;-87
2022/03/16 00:50:39;;;;;;;12.88;9.32;;;6.60;91.10;;;;;;2062571;28;20034;-88
2022/03/16 00:51:40;;;;;;;12.30;9.45;;;6.60;91.40;;;;;;2063539;28;20041;-88
2022/03/16 00:52:40;;;;;;;12.63;9.27;;;6.60;91.10;;;;;;2072879;28;20104;-88
2022/03/16 00:53:42;;;;;;;12.80;9.27;;;6.60;91.10;;;;;;2064236;28;20018;-88
2022/03/16 00:54:42;;;;;;;13.23;9.68;;;6.60;91.10;;;;;;2056684;28;20038;-87
2022/03/16 00:55:43;;;;;;;12.40;9.75;;;6.60;91.10;;;;;;2045235;28;20110;-87
2022/03/16 00:56:44;;;;;;;14.55;10.45;;;6.50;91.10;;;;;;2064209;28;20045;-88
2022/03/16 00:57:44;;;;;;;13.48;9.73;;;6.50;91.10;;;;;;2070873;28;20045;-87
2022/03/16 00:58:45;;;;;;;13.77;10.00;;;6.50;91.10;;;;;;2063477;28;20035;-88
2022/03/16 00:59:46;;;;;;;13.02;9.32;;;6.50;91.10;;;;;;2072118;28;20530;-88
2022/03/16 01:00:46;;;;;;;13.70;10.23;;;6.50;91.20;;;;;;2071114;28;20476;-88
2022/03/16 01:01:47;;;;;;;13.43;10.10;;;6.50;91.20;;;;;;2062798;28;20034;-87
2022/03/16 01:02:47;;;;;;;15.00;10.20;;;6.50;91.20;;;;;;2043142;29;20090;-87
2022/03/16 01:03:48;;;;;;;13.32;9.63;;;6.40;91.20;;;;;;2057532;28;20052;-87
2022/03/16 01:04:49;;;;;;;13.60;9.95;;;6.40;91.20;;;;;;2055827;28;20508;-87
2022/03/16 01:05:49;;;;;;;13.35;9.77;;;6.40;91.20;;;;;;2063835;28;20065;-88
2022/03/16 01:06:53;;;;;;;13.38;9.90;;;6.40;91.20;;;;;;2068607;28;20032;-88
2022/03/16 01:07:53;;;;;;;14.02;9.52;;;6.40;91.20;;;;;;2072897;28;20033;-87
2022/03/16 01:08:54;;;;;;;14.43;9.57;;;6.40;91.20;;;;;;2063814;28;20137;-88
2022/03/16 01:09:55;;;;;;;14.02;9.90;;;6.40;91.20;;;;;;2064950;28;20523;-88
2022/03/16 01:10:55;;;;;;;13.43;10.13;;;6.40;91.20;;;;;;2068274;28;20125;-88
2022/03/16 01:11:56;;;;;;;14.68;10.50;;;6.40;91.20;;;;;;2064544;28;20034;-88
2022/03/16 01:12:57;;;;;;;13.38;10.20;;;6.40;91.20;;;;;;2045557;28;20027;-87
2022/03/16 01:13:57;;;;;;;16.58;10.38;;;6.40;91.20;;;;;;2051177;28;20039;-88
2022/03/16 01:14:58;;;;;;;14.13;10.15;;;6.40;91.20;;;;;;2061120;28;20146;-88
2022/03/16 01:15:58;;;;;;;14.25;10.40;;;6.40;91.20;;;;;;2057474;28;20033;-88
2022/03/16 01:16:59;;;;;;;15.68;10.32;;;6.40;91.20;;;;;;2060067;28;20038;-88
2022/03/16 01:18:00;;;;;;;15.00;9.88;;;6.40;91.30;;;;;;2059663;28;20019;-88
2022/03/16 01:19:01;;;;;;;14.18;10.25;;;6.40;91.30;;;;;;2049846;28;20514;-88
2022/03/16 01:20:01;;;;;;;14.73;10.68;;;6.40;91.30;;;;;;2048094;28;20039;-88
2022/03/16 01:21:05;;;;;;;15.07;10.80;;;6.30;91.30;;;;;;2062939;28;20097;-88
2022/03/16 01:22:06;;;;;;;13.90;10.43;;;6.40;91.30;;;;;;2071124;28;20065;-88
2022/03/16 01:23:07;;;;;;;14.10;10.35;;;6.30;91.30;;;;;;2071601;28;20073;-88
2022/03/16 01:24:08;;;;;;;15.38;10.45;;;6.40;91.30;;;;;;2060529;28;20500;-88
2022/03/16 01:25:09;;;;;;;16.33;10.45;;;6.40;91.40;;;;;;2053979;28;20026;-88
2022/03/16 01:26:09;;;;;;;12.73;10.10;;;6.40;91.30;;;;;;2063627;28;20445;-88
2022/03/16 01:27:10;;;;;;;15.38;10.98;;;6.40;91.30;;;;;;2054821;28;20057;-88
2022/03/16 01:28:11;;;;;;;15.15;10.77;;;6.40;91.30;;;;;;2055694;28;20026;-88
2022/03/16 01:29:11;;;;;;;14.65;10.95;;;6.40;91.40;;;;;;2064664;28;20030;-88
2022/03/16 01:30:15;;;;;;;13.43;10.13;;;6.40;91.40;;;;;;2056085;28;20105;-87
2022/03/16 01:31:19;;;;;;;14.73;10.77;;;6.40;91.40;;;;;;2049320;28;20493;-88
2022/03/16 01:32:19;;;;;;;15.00;10.77;;;6.40;91.40;;;;;;2057720;28;20359;-88
2022/03/16 01:33:20;;;;;;;14.57;10.65;;;6.40;91.40;;;;;;2072193;28;20088;-88
2022/03/16 01:34:22;;;;;;;15.50;11.00;;;6.40;91.40;;;;;;2072563;28;20026;-88
2022/03/16 01:35:22;;;;;;;14.25;10.30;;;6.40;91.40;;;;;;2072159;28;20022;-87
2022/03/16 01:36:24;;;;;;;14.85;10.82;;;6.40;91.40;;;;;;2064182;28;20480;-87
2022/03/16 01:37:25;;;;;;;14.63;10.68;;;6.40;91.40;;;;;;2056353;28;20031;-88
2022/03/16 01:38:26;;;;;;;14.23;10.15;;;6.40;91.40;;;;;;2055630;28;20038;-88
2022/03/16 01:39:26;;;;;;;14.80;10.98;;;6.40;91.40;;;;;;2066279;28;20018;-88
2022/03/16 01:40:27;;;;;;;14.30;10.98;;;6.40;91.40;;;;;;2062662;28;20385;-87
2022/03/16 01:41:27;;;;;;;16.77;11.38;;;6.40;91.40;;;;;;2056877;28;20071;-87
2022/03/16 01:42:28;;;;;;;16.20;12.02;;;6.40;91.40;;;;;;2069489;28;20034;-87
2022/03/16 01:43:29;;;;;;;14.93;11.57;;;6.40;91.40;;;;;;2057033;28;20126;-88
2022/03/16 01:44:51;;;;;;;16.17;11.82;;;6.40;91.50;;;;;;2057792;28;20102;-88
2022/03/16 01:45:52;;;;;;;15.05;10.90;;;6.40;91.50;;;;;;2074000;28;20029;-88
2022/03/16 01:46:53;;;;;;;14.55;11.07;;;6.30;91.40;;;;;;2071220;28;20499;-87
2022/03/16 01:47:53;;;;;;;14.98;10.80;;;6.40;91.50;;;;;;2063751;28;20585;-88
2022/03/16 01:48:54;;;;;;;15.32;11.23;;;6.30;91.40;;;;;;2052995;28;20054;-88
2022/03/16 01:49:55;;;;;;;15.40;11.05;;;6.30;91.40;;;;;;2044030;29;20425;-88
2022/03/16 01:50:56;;;;;;;15.75;11.40;;;6.40;91.40;;;;;;2062925;28;20030;-88
2022/03/16 01:51:57;;;;;;;16.20;11.80;;;6.30;91.40;;;;;;2073644;28;20032;-88
2022/03/16 01:52:58;;;;;;;16.98;12.02;;;6.30;91.70;;;;;;2068013;28;20026;-87
2022/03/16 01:53:59;;;;;;;17.42;12.20;;;6.30;91.40;;;;;;2074523;28;20074;-87
2022/03/16 01:55:04;;;;;;;15.07;11.63;;;6.30;91.50;;;;;;2074132;28;20025;-87
2022/03/16 01:56:05;;;;;;;16.55;11.10;;;6.30;91.50;;;;;;2075178;28;20040;-87
2022/03/16 01:57:07;;;;;;;15.45;11.15;;;6.30;91.50;;;;;;2073721;28;20026;-87
2022/03/16 01:58:11;;;;;;;15.10;11.45;;;6.30;91.50;;;;;;2073665;28;20034;-87
2022/03/16 01:59:12;;;;;;;14.82;11.32;;;6.30;91.50;;;;;;2072624;28;20029;-87
2022/03/16 02:00:14;;;;;;;15.63;11.23;;;6.30;91.50;;;;;;2068775;28;20124;-88
2022/03/16 02:01:15;;;;;;;16.15;11.95;;;6.30;91.50;;;;;;2072786;28;20022;-88
2022/03/16 02:02:15;;;;;;;14.73;11.25;;;6.30;91.50;;;;;;2073355;28;20080;-88
2022/03/16 02:03:16;;;;;;;15.18;11.07;;;6.20;91.50;;;;;;2074636;28;20088;-88
2022/03/16 02:04:17;;;;;;;16.20;11.23;;;6.30;91.80;;;;;;2072990;28;20080;-87
2022/03/16 02:05:17;;;;;;;15.73;11.55;;;6.20;91.50;;;;;;2065008;28;20069;-87
2022/03/16 02:06:18;;;;;;;14.88;10.95;;;6.20;91.50;;;;;;2066532;28;20476;-88
2022/03/16 02:07:19;;;;;;;14.80;10.90;;;6.20;91.50;;;;;;2066064;28;20023;-87
2022/03/16 02:08:19;;;;;;;16.48;11.43;;;6.20;91.50;;;;;;2055113;28;20535;-88
2022/03/16 02:09:21;;;;;;;17.02;12.05;;;6.20;91.50;;;;;;2057557;28;20392;-88
2022/03/16 02:10:22;;;;;;;15.70;11.27;;;6.20;91.50;;;;;;2063037;28;20035;-87
2022/03/16 02:11:23;;;;;;;16.40;11.50;;;6.10;91.50;;;;;;2066042;28;20027;-88
2022/03/16 02:12:23;;;;;;;16.50;11.40;;;6.10;91.60;;;;;;2065717;28;20096;-88
2022/03/16 02:13:24;;;;;;;14.55;11.00;;;6.10;91.60;;;;;;2065911;28;20404;-88
2022/03/16 02:14:25;;;;;;;15.18;11.48;;;6.10;91.60;;;;;;2063171;28;20023;-88
2022/03/16 02:15:26;;;;;;;14.27;10.52;;;6.10;91.60;;;;;;2056475;28;20493;-88
2022/03/16 02:16:26;;;;;;;16.15;11.30;;;6.10;91.60;;;;;;2073224;28;20030;-87
2022/03/16 02:17:27;;;;;;;15.18;10.93;;;6.10;91.60;;;;;;2079600;28;20033;-88
2022/03/16 02:18:28;;;;;;;16.27;11.57;;;6.10;91.60;;;;;;2056649;28;20033;-87
2022/03/16 02:19:29;;;;;;;15.50;11.25;;;6.00;91.60;;;;;;2041880;28;20031;-87
2022/03/16 02:20:29;;;;;;;17.45;11.55;;;6.00;91.60;;;;;;2049883;28;20410;-87
2022/03/16 02:21:36;;;;;;;15.07;11.20;;;6.00;91.70;;;;;;2056395;28;20167;-87
2022/03/16 02:22:50;;;;;;;15.57;11.10;;;6.00;91.70;;;;;;2058773;28;20032;-87
2022/03/16 02:23:51;;;;;;;15.27;11.25;;;6.00;91.70;;;;;;2069797;28;20429;-87
2022/03/16 02:24:52;;;;;;;15.75;11.10;;;6.00;91.70;;;;;;2071876;28;20434;-87
2022/03/16 02:25:54;;;;;;;14.60;11.18;;;6.00;91.70;;;;;;2073718;28;20113;-87
2022/03/16 02:26:56;;;;;;;15.82;11.07;;;6.00;91.70;;;;;;2071431;28;20034;-88
2022/03/16 02:27:58;;;;;;;15.35;11.23;;;6.00;91.70;;;;;;2074467;28;20058;-88
2022/03/16 02:28:59;;;;;;;15.45;11.50;;;6.00;91.70;;;;;;2073994;28;20451;-87
2022/03/16 02:30:00;;;;;;;15.15;11.18;;;6.00;91.70;;;;;;2073129;28;20061;-87
2022/03/16 02:31:00;;;;;;;14.85;11.18;;;6.00;91.80;;;;;;2067488;28;20225;-87
2022/03/16 02:32:01;;;;;;;15.90;11.55;;;6.00;91.70;;;;;;2064097;28;20417;-88
2022/03/16 02:33:02;;;;;;;15.75;11.88;;;5.90;91.70;;;;;;2073764;28;20033;-88
2022/03/16 02:34:02;;;;;;;14.75;11.18;;;6.00;91.80;;;;;;2056888;28;20031;-88
2022/03/16 02:35:03;;;;;;;15.52;11.63;;;6.00;91.80;;;;;;2048386;28;20078;-87
2022/03/16 02:36:04;;;;;;;15.98;11.32;;;6.00;91.80;;;;;;2057624;28;20023;-87
2022/03/16 02:37:05;;;;;;;17.42;12.40;;;6.00;91.70;;;;;;2048218;28;20031;-87
2022/03/16 02:38:06;;;;;;;16.67;11.85;;;6.00;91.80;;;;;;2048586;28;20039;-87
2022/03/16 02:39:07;;;;;;;17.20;11.60;;;6.00;91.80;;;;;;2059203;28;20027;-88
2022/03/16 02:40:11;;;;;;;16.23;12.02;;;5.90;91.70;;;;;;2072994;28;20121;-89
2022/03/16 02:41:11;;;;;;;17.88;12.10;;;5.90;91.80;;;;;;2073807;28;20061;-89
2022/03/16 02:42:12;;;;;;;17.75;12.82;;;5.90;91.80;;;;;;2065532;28;20026;-89
2022/03/16 02:43:13;;;;;;;17.70;12.38;;;5.90;91.70;;;;;;2055983;28;20493;-88
2022/03/16 02:44:14;;;;;;;15.95;11.77;;;5.90;92.00;;;;;;2059075;28;20110;-88
2022/03/16 02:45:15;;;;;;;16.25;12.40;;;5.90;91.80;;;;;;2062622;28;20035;-89
2022/03/16 02:46:16;;;;;;;16.25;11.80;;;5.90;91.80;;;;;;2071781;28;20041;-88
2022/03/16 02:47:17;;;;;;;16.40;12.13;;;5.90;91.80;;;;;;2068725;28;20054;-89
2022/03/16 02:48:17;;;;;;;17.67;12.48;;;5.90;91.80;;;;;;2051263;28;20132;-88
2022/03/16 02:49:18;;;;;;;17.83;12.95;;;5.90;91.80;;;;;;2058708;28;20089;-88
2022/03/16 02:50:19;;;;;;;16.50;12.55;;;5.90;91.80;;;;;;2068419;28;20060;-88
2022/03/16 02:51:20;;;;;;;16.67;12.50;;;5.90;91.80;;;;;;2075059;28;20026;-88
2022/03/16 02:52:22;;;;;;;17.80;12.35;;;5.90;91.80;;;;;;2076279;28;20573;-88
2022/03/16 02:53:22;;;;;;;16.85;11.70;;;5.90;91.80;;;;;;2072578;28;20038;-89
2022/03/16 02:54:23;;;;;;;17.38;12.27;;;5.90;91.80;;;;;;2072909;28;20443;-89
2022/03/16 02:55:24;;;;;;;16.60;12.10;;;5.80;91.80;;;;;;2073646;28;20570;-88
2022/03/16 02:56:27;;;;;;;18.60;13.20;;;5.90;91.90;;;;;;2062528;28;20109;-88
2022/03/16 02:57:27;;;;;;;17.40;13.13;;;5.80;91.80;;;;;;2065363;28;20034;-88
2022/03/16 02:58:28;;;;;;;16.40;12.32;;;5.80;91.80;;;;;;2073962;28;20029;-89
2022/03/16 02:59:29;;;;;;;15.40;12.20;;;5.80;91.80;;;;;;2065460;28;20109;-89
2022/03/16 03:00:29;;;;;;;17.05;12.38;;;5.80;91.90;;;;;;2067213;28;20404;-88
2022/03/16 03:01:30;;;;;;;16.90;12.50;;;5.80;91.90;;;;;;2073741;28;20033;-88
2022/03/16 03:02:31;;;;;;;17.63;13.05;;;5.80;91.90;;;;;;2060924;28;20037;-88
2022/03/16 03:03:31;;;;;;;16.55;12.40;;;5.80;91.90;;;;;;2072383;28;20064;-89
2022/03/16 03:04:32;;;;;;;17.95;12.82;;;5.80;91.90;;;;;;2072050;28;20121;-89
2022/03/16 03:05:33;;;;;;;18.23;13.00;;;5.80;91.90;;;;;;2061106;28;20421;-89
2022/03/16 03:06:33;;;;;;;19.63;13.60;;;5.80;91.90;;;;;;2072319;28;20104;-89
2022/03/16 03:07:34;;;;;;;18.00;13.55;;;5.80;92.00;;;;;;2067948;28;20041;-89
2022/03/16 03:08:35;;;;;;;23.20;15.65;;;5.80;92.00;;;;;;2064180;28;20050;-89
2022/03/16 03:09:36;;;;;;;20.70;15.10;;;5.80;92.00;;;;;;2052716;28;20031;-89
2022/03/16 03:10:36;;;;;;;20.83;15.07;;;5.80;92.00;;;;;;2063863;28;20030;-89
2022/03/16 03:11:37;;;;;;;19.58;14.77;;;5.80;92.00;;;;;;2068544;28;20400;-89
2022/03/16 03:12:38;;;;;;;19.52;15.10;;;5.80;92.00;;;;;;2071105;28;20061;-89
2022/03/16 03:13:38;;;;;;;22.60;16.17;;;5.80;92.00;;;;;;2073430;28;20022;-89
2022/03/16 03:14:39;;;;;;;20.75;16.45;;;5.90;92.00;;;;;;2064077;28;20062;-88
2022/03/16 03:15:41;;;;;;;23.80;16.60;;;5.90;92.00;;;;;;2057185;28;20027;-89
2022/03/16 03:16:42;;;;;;;22.40;16.25;;;5.90;92.00;;;;;;2064966;28;20034;-88
2022/03/16 03:17:43;;;;;;;22.35;15.88;;;5.90;92.00;;;;;;2073379;28;20026;-88
2022/03/16 03:18:44;;;;;;;20.73;15.57;;;6.00;92.00;;;;;;2069144;28;20389;-89
2022/03/16 03:19:44;;;;;;;20.05;15.43;;;6.00;91.90;;;;;;2073203;28;20040;-88
2022/03/16 03:20:45;;;;;;;21.77;15.77;;;6.00;91.90;;;;;;2054902;28;20035;-88
2022/03/16 03:21:45;;;;;;;20.85;14.82;;;6.00;91.90;;;;;;2065335;28;20486;-88
2022/03/16 03:22:46;;;;;;;21.75;16.05;;;6.00;91.90;;;;;;2071264;28;20484;-89
2022/03/16 03:23:47;;;;;;;20.13;14.63;;;6.00;91.90;;;;;;2072812;28;20137;-88
2022/03/16 03:24:47;;;;;;;20.92;14.90;;;6.00;91.90;;;;;;2063700;28;20113;-88
2022/03/16 03:25:48;;;;;;;21.08;15.65;;;6.00;91.90;;;;;;2065253;28;20042;-89
2022/03/16 03:26:49;;;;;;;20.20;14.90;;;6.00;91.90;;;;;;2057087;28;20031;-88
2022/03/16 03:27:49;;;;;;;19.63;15.18;;;6.00;91.90;;;;;;2062101;28;20185;-89
2022/03/16 03:28:50;;;;;;;20.27;15.32;;;6.00;91.90;;;;;;2072979;28;20034;-89
2022/03/16 03:29:51;;;;;;;19.65;14.85;;;6.00;91.90;;;;;;2073757;28;20156;-88
2022/03/16 03:30:52;;;;;;;21.77;15.85;;;6.00;91.90;;;;;;2065186;28;20430;-88
2022/03/16 03:31:53;;;;;;;20.55;15.45;;;6.00;91.90;;;;;;2056620;28;20027;-89
2022/03/16 03:32:54;;;;;;;19.90;14.38;;;6.00;91.90;;;;;;2056792;28;20064;-89
2022/03/16 03:33:55;;;;;;;20.23;15.32;;;6.00;92.00;;;;;;2057332;28;20054;-89
2022/03/16 03:34:56;;;;;;;18.65;14.32;;;6.00;91.90;;;;;;2056421;28;20039;-89
2022/03/16 03:35:56;;;;;;;21.05;15.05;;;6.00;92.00;;;;;;2063416;28;20058;-88
2022/03/16 03:36:57;;;;;;;20.90;15.23;;;6.00;92.00;;;;;;2061823;28;20026;-88
2022/03/16 03:37:58;;;;;;;19.70;14.90;;;6.00;92.00;;;;;;2059023;28;20031;-89
2022/03/16 03:38:58;;;;;;;20.55;15.13;;;6.00;92.00;;;;;;2049517;28;20023;-89
2022/03/16 03:39:59;;;;;;;20.63;14.88;;;5.90;91.90;;;;;;2055885;28;20133;-88
2022/03/16 03:41:00;;;;;;;22.27;16.13;;;5.90;92.00;;;;;;2065260;28;20444;-88
2022/03/16 03:42:00;;;;;;;21.80;16.30;;;5.90;92.00;;;;;;2057216;28;20037;-88
2022/03/16 03:43:01;;;;;;;20.77;15.90;;;5.90;92.00;;;;;;2064118;28;20034;-89
2022/03/16 03:44:02;;;;;;;22.33;16.95;;;5.90;92.00;;;;;;2073517;28;20535;-89
2022/03/16 03:45:03;;;;;;;20.08;15.48;;;5.90;92.10;;;;;;2064358;28;20034;-88
2022/03/16 03:46:03;;;;;;;21.65;16.67;;;5.90;92.10;;;;;;2048057;28;20062;-88
2022/03/16 03:47:07;;;;;;;21.05;15.73;;;5.90;92.30;;;;;;2048209;28;20225;-89
2022/03/16 03:48:07;;;;;;;22.05;15.93;;;5.90;92.10;;;;;;2055192;28;20081;-88
2022/03/16 03:49:08;;;;;;;22.95;17.23;;;5.90;92.10;;;;;;2056009;28;20026;-89
2022/03/16 03:50:09;;;;;;;20.65;16.40;;;5.90;92.10;;;;;;2051685;28;20395;-89
2022/03/16 03:51:10;;;;;;;21.10;15.82;;;5.90;92.10;;;;;;2056249;28;20035;-88
2022/03/16 03:52:11;;;;;;;20.15;15.30;;;5.90;92.10;;;;;;2056464;28;20317;-89
2022/03/16 03:53:11;;;;;;;19.67;15.32;;;5.90;92.10;;;;;;2063128;28;20428;-89
2022/03/16 03:54:12;;;;;;;22.00;16.30;;;5.90;92.00;;;;;;2072945;28;20037;-88
2022/03/16 03:55:12;;;;;;;20.00;15.75;;;5.90;92.10;;;;;;2070608;28;20021;-88
2022/03/16 03:56:13;;;;;;;20.27;15.68;;;5.90;92.10;;;;;;2073213;28;20081;-88
2022/03/16 03:57:14;;;;;;;23.48;17.05;;;5.90;92.10;;;;;;2062848;28;20077;-88
2022/03/16 03:58:14;;;;;;;22.00;16.30;;;5.90;92.10;;;;;;2064885;28;20041;-89
2022/03/16 03:59:15;;;;;;;21.70;16.08;;;5.90;92.10;;;;;;2056811;28;20082;-88
2022/03/16 04:00:16;;;;;;;21.25;16.42;;;5.90;92.10;;;;;;2060116;28;20129;-88
2022/03/16 04:01:16;;;;;;;22.98;16.30;;;5.90;92.10;;;;;;2067829;28;20034;-89
2022/03/16 04:02:17;;;;;;;21.48;15.00;;;5.90;92.10;;;;;;2055063;28;20117;-88
2022/03/16 04:03:18;;;;;;;21.77;15.90;;;5.90;92.10;;;;;;2057023;28;20031;-88
2022/03/16 04:04:19;;;;;;;20.73;16.27;;;5.90;92.10;;;;;;2052041;28;20038;-88
2022/03/16 04:05:20;;;;;;;21.33;15.88;;;5.80;92.10;;;;;;2056914;28;20027;-89
2022/03/16 04:06:20;;;;;;;20.33;15.73;;;5.80;92.10;;;;;;2069648;28;20117;-88
2022/03/16 04:07:21;;;;;;;21.60;15.80;;;5.80;92.10;;;;;;2072746;28;20507;-89
2022/03/16 04:08:22;;;;;;;21.50;16.38;;;5.90;92.10;;;;;;2071731;28;20033;-89
2022/03/16 04:09:22;;;;;;;19.73;15.43;;;5.90;92.10;;;;;;2070386;28;20036;-88
2022/03/16 04:10:23;;;;;;;23.92;17.63;;;5.90;92.10;;;;;;2070668;28;20030;-88
2022/03/16 04:11:24;;;;;;;21.33;16.60;;;5.90;92.10;;;;;;2074447;28;20057;-89
2022/03/16 04:12:26;;;;;;;23.23;17.42;;;5.90;92.10;;;;;;2069992;28;20054;-88
2022/03/16 04:13:27;;;;;;;23.25;17.08;;;5.90;92.10;;;;;;2065160;28;20038;-89
2022/03/16 04:14:27;;;;;;;22.20;16.75;;;5.90;92.10;;;;;;2072662;28;20029;-88
2022/03/16 04:15:29;;;;;;;23.27;17.63;;;5.90;92.10;;;;;;2072447;28;20038;-89
2022/03/16 04:16:29;;;;;;;21.92;16.83;;;5.90;92.10;;;;;;2071841;28;20022;-88
2022/03/16 04:17:30;;;;;;;23.08;17.00;;;5.90;92.10;;;;;;2071719;28;20045;-88
2022/03/16 04:18:30;;;;;;;24.50;18.23;;;5.90;92.10;;;;;;2071746;28;20053;-88
2022/03/16 04:19:31;;;;;;;21.13;16.65;;;5.90;92.10;;;;;;2067712;28;20515;-88
2022/03/16 04:20:32;;;;;;;23.48;17.30;;;5.90;92.10;;;;;;2064197;28;20034;-88
2022/03/16 04:21:33;;;;;;;23.13;16.98;;;5.90;92.10;;;;;;2061989;28;20022;-88
2022/03/16 04:22:34;;;;;;;22.10;16.65;;;5.90;92.10;;;;;;2072370;28;20581;-89
2022/03/16 04:23:35;;;;;;;22.40;16.70;;;5.80;92.10;;;;;;2060726;28;20045;-89
2022/03/16 04:24:35;;;;;;;21.10;16.17;;;5.90;92.10;;;;;;2056939;28;20117;-89
2022/03/16 04:25:36;;;;;;;23.02;17.40;;;5.90;92.10;;;;;;2065697;28;20495;-89
2022/03/16 04:26:36;;;;;;;21.65;16.65;;;5.80;92.10;;;;;;2068414;28;20085;-88
2022/03/16 04:27:37;;;;;;;24.60;18.02;;;5.80;92.10;;;;;;2069994;28;20033;-89
2022/03/16 04:28:38;;;;;;;22.23;16.85;;;5.80;92.10;;;;;;2063655;28;20025;-88
2022/03/16 04:29:38;;;;;;;21.67;15.90;;;5.80;92.10;;;;;;2063166;28;20072;-89
2022/03/16 04:30:39;;;;;;;22.88;15.80;;;5.80;92.40;;;;;;2062206;28;20049;-89
2022/03/16 04:31:39;;;;;;;22.77;16.48;;;5.80;92.20;;;;;;2079019;28;20048;-89
2022/03/16 04:32:40;;;;;;;20.13;15.45;;;5.80;92.20;;;;;;2081199;28;20021;-88
2022/03/16 04:33:41;;;;;;;19.40;14.63;;;5.80;92.20;;;;;;2072699;28;20458;-89
2022/03/16 04:34:42;;;;;;;20.63;15.15;;;5.80;92.20;;;;;;2056869;28;20090;-89
2022/03/16 04:35:43;;;;;;;20.15;15.02;;;5.80;92.20;;;;;;2063853;28;20033;-89
2022/03/16 04:36:43;;;;;;;20.73;14.13;;;5.80;92.20;;;;;;2067130;28;20073;-89
2022/03/16 04:37:44;;;;;;;19.88;14.45;;;5.80;92.20;;;;;;2064510;28;20064;-88
2022/03/16 04:38:44;;;;;;;18.10;13.65;;;5.80;92.20;;;;;;2059720;28;20034;-88
2022/03/16 04:39:45;;;;;;;18.45;14.13;;;5.80;92.20;;;;;;2064471;28;20034;-89
2022/03/16 04:40:46;;;;;;;18.85;13.93;;;5.80;92.20;;;;;;2067063;28;20084;-89
2022/03/16 04:41:47;;;;;;;18.40;14.13;;;5.80;92.50;;;;;;2064617;28;20026;-89
2022/03/16 04:42:48;;;;;;;19.95;13.95;;;5.70;92.30;;;;;;2062522;28;20040;-88
2022/03/16 04:43:48;;;;;;;18.50;14.00;;;5.70;92.30;;;;;;2064853;28;20505;-89
2022/03/16 04:44:49;;;;;;;18.08;13.75;;;5.70;92.30;;;;;;2063942;28;20087;-89
2022/03/16 04:45:49;;;;;;;19.83;14.65;;;5.70;92.30;;;;;;2049758;28;20037;-89
2022/03/16 04:46:50;;;;;;;18.83;13.77;;;5.70;92.30;;;;;;2065191;28;20031;-89
2022/03/16 04:47:51;;;;;;;18.70;13.98;;;5.70;92.30;;;;;;2067959;28;20052;-88
2022/03/16 04:48:51;;;;;;;19.00;14.20;;;5.70;92.30;;;;;;2069432;28;20014;-88
2022/03/16 04:49:52;;;;;;;20.48;14.73;;;5.70;92.30;;;;;;2062634;28;20050;-89
2022/03/16 04:50:53;;;;;;;20.05;15.30;;;5.70;92.60;;;;;;2064923;28;20031;-88
2022/03/16 04:51:53;;;;;;;21.50;15.45;;;5.70;92.40;;;;;;2062536;28;20071;-89
2022/03/16 04:52:54;;;;;;;23.98;17.02;;;5.70;92.40;;;;;;2065034;28;20117;-88
2022/03/16 04:53:54;;;;;;;23.55;16.98;;;5.70;92.40;;;;;;2068935;28;20084;-88
2022/03/16 04:54:55;;;;;;;22.10;16.60;;;5.60;92.40;;;;;;2060739;28;20445;-88
2022/03/16 04:55:56;;;;;;;23.88;17.23;;;5.60;92.40;;;;;;2061839;28;20065;-88
2022/03/16 04:56:56;;;;;;;23.45;17.38;;;5.60;92.40;;;;;;2050342;28;20110;-89
2022/03/16 04:57:57;;;;;;;21.40;16.05;;;5.60;92.70;;;;;;2046680;28;20059;-89
2022/03/16 04:58:58;;;;;;;21.08;16.17;;;5.60;92.50;;;;;;2052858;28;20046;-89
2022/03/16 04:59:58;;;;;;;20.77;15.40;;;5.60;92.50;;;;;;2063130;28;20066;-88
2022/03/16 05:00:59;;;;;;;22.10;16.08;;;5.60;92.50;;;;;;2051329;28;20047;-88
2022/03/16 05:02:00;;;;;;;22.52;15.65;;;5.60;92.50;;;;;;2056849;28;20035;-88
2022/03/16 05:03:01;;;;;;;19.27;14.32;;;5.60;92.50;;;;;;2070763;28;20425;-89
2022/03/16 05:04:02;;;;;;;19.52;14.82;;;5.60;92.50;;;;;;2072924;28;20037;-88
2022/03/16 05:05:03;;;;;;;19.88;14.68;;;5.60;92.50;;;;;;2073017;28;20022;-88
2022/03/16 05:06:04;;;;;;;19.25;14.18;;;5.60;92.50;;;;;;2058382;28;20034;-88
2022/03/16 05:07:05;;;;;;;19.55;15.05;;;5.60;92.50;;;;;;2060828;28;20031;-89
2022/03/16 05:08:05;;;;;;;18.60;14.25;;;5.60;92.50;;;;;;2069447;28;20026;-88
2022/03/16 05:09:06;;;;;;;20.67;14.57;;;5.60;92.50;;;;;;2071542;28;20492;-89
2022/03/16 05:10:07;;;;;;;20.42;14.68;;;5.60;92.50;;;;;;2072331;28;20084;-89
2022/03/16 05:11:08;;;;;;;19.05;14.43;;;5.60;92.50;;;;;;2070882;28;20030;-89
2022/03/16 05:12:09;;;;;;;22.25;15.00;;;5.60;92.50;;;;;;2064800;28;20081;-88
2022/03/16 05:13:10;;;;;;;21.52;15.10;;;5.60;92.50;;;;;;2054770;28;20036;-88
2022/03/16 05:14:10;;;;;;;19.90;14.57;;;5.60;92.60;;;;;;2065722;28;20038;-88